Hare, Texas
Current Conditions -  °F | °C
As of 1:58 PM on Wednesday 17 Dec 2014 (Local Time) from KGRK Reporting Station
Thunderstorm Thunderstorm  
Wind Chill: 41°   Ceiling: 1200
Heat Index: 45°   Visibility: 6mi
Dew Point: 42°   Wind: 8mph
Humidity: 90%   Direction: 130°SE
Pressure: 30.07"   Gusts: NA
Location:  30.5793°N, 97.5096°W
Report Text: KGRK 171958Z AUTO 13007KT 6SM -RA BR VCTS OVC012 07/06 A3007 RMK AO2 LTG DSNT NW-N AND SE-S RAB1948 SLP185 P0000 T00720056
Loading
Personal Weather Stations






























Interactive Weather Map New forecast layout! Learn more

10-Day Weather Forecast

Advertisements
Track Severe Weather on mobile